createdAt,value
2023-05-15T00:01:27.047Z,99977.58
2023-05-15T00:03:55.092Z,99970.81
2023-05-15T00:06:23.386Z,99970.34
2023-05-15T00:08:51.002Z,99967.70
2023-05-15T00:11:18.516Z,99967.49
2023-05-15T00:13:46.080Z,99963.11
2023-05-15T00:16:14.180Z,99963.48
2023-05-15T00:18:41.743Z,99953.94
2023-05-15T00:21:09.279Z,99954.48
2023-05-15T00:23:36.768Z,99952.02
2023-05-15T00:26:04.380Z,99950.92
2023-05-15T00:28:31.825Z,99950.40
2023-05-15T00:30:59.358Z,99946.55
2023-05-15T00:33:26.835Z,99944.14
2023-05-15T00:35:54.393Z,99945.36
2023-05-15T00:38:22.035Z,99938.52
2023-05-15T00:40:49.595Z,99938.19
2023-05-15T00:43:18.273Z,99938.18
2023-05-15T00:45:46.287Z,99934.50
2023-05-15T00:48:14.358Z,99934.70
2023-05-15T00:50:43.308Z,99931.39
2023-05-15T00:53:11.178Z,99935.46
2023-05-15T00:55:40.885Z,99931.45
2023-05-15T00:58:13.580Z,99928.26
2023-05-15T01:00:43.766Z,99924.53
2023-05-15T01:03:11.842Z,99922.06
2023-05-15T01:05:39.902Z,99917.33
2023-05-15T01:08:20.783Z,99919.86
2023-05-15T01:10:52.136Z,99919.35
2023-05-15T01:13:21.933Z,99917.09
2023-05-15T01:15:52.502Z,99913.79
2023-05-15T01:18:20.081Z,99910.70
2023-05-15T01:21:05.594Z,99902.71
2023-05-15T01:23:46.666Z,99896.96
2023-05-15T01:26:33.724Z,99892.08
2023-05-15T01:29:23.977Z,99890.73
2023-05-15T01:32:02.123Z,99891.56
2023-05-15T01:34:50.108Z,99885.23
2023-05-15T01:37:25.733Z,99884.77
2023-05-15T01:40:01.266Z,99882.48
2023-05-15T01:42:33.369Z,99880.42
2023-05-15T01:45:06.059Z,99881.00
2023-05-15T01:47:41.180Z,99874.42
2023-05-15T01:50:14.606Z,99869.25
2023-05-15T01:52:47.314Z,99865.52
2023-05-15T01:55:16.295Z,99856.15
2023-05-15T01:57:47.680Z,99853.94
2023-05-15T02:00:16.951Z,99850.04
2023-05-15T02:02:46.728Z,99850.65
2023-05-15T02:05:15.407Z,99846.52
2023-05-15T02:07:44.907Z,99843.21
2023-05-15T02:10:14.265Z,99846.55
2023-05-15T02:12:42.692Z,99846.81
2023-05-15T02:15:11.438Z,99837.98
2023-05-15T02:17:39.115Z,99834.30
2023-05-15T02:20:09.603Z,99835.23
2023-05-15T02:22:37.079Z,99834.92
2023-05-15T02:25:04.975Z,99828.28
2023-05-15T02:27:46.169Z,99821.27
2023-05-15T02:30:35.552Z,99818.83
2023-05-15T02:33:14.716Z,99817.05
2023-05-15T02:35:49.119Z,99815.45
2023-05-15T02:38:23.053Z,99809.70
2023-05-15T02:40:54.232Z,99811.07
2023-05-15T02:43:22.582Z,99801.16
2023-05-15T02:45:52.599Z,99797.45
2023-05-15T02:48:22.607Z,99794.34
2023-05-15T02:50:52.318Z,99790.15
2023-05-15T02:53:19.926Z,99782.63
2023-05-15T02:55:50.055Z,99775.88
2023-05-15T02:58:17.961Z,99770.00
2023-05-15T03:00:45.624Z,99766.50
2023-05-15T03:03:13.187Z,99764.56
2023-05-15T03:05:40.722Z,99761.41
2023-05-15T03:08:08.264Z,99757.88
2023-05-15T03:10:35.753Z,99759.50
2023-05-15T03:13:03.303Z,99756.20
2023-05-15T03:15:30.972Z,99748.83
2023-05-15T03:17:58.520Z,99747.16
2023-05-15T03:20:26.104Z,99747.92
2023-05-15T03:22:53.981Z,99753.38
2023-05-15T03:25:22.894Z,99755.63
2023-05-15T03:27:50.766Z,99750.23
2023-05-15T03:30:18.321Z,99738.48
2023-05-15T03:32:46.051Z,99735.55
2023-05-15T03:35:14.840Z,99736.79
2023-05-15T03:37:42.460Z,99737.13
2023-05-15T03:40:10.419Z,99737.23
2023-05-15T03:42:37.927Z,99736.48
2023-05-15T03:45:06.131Z,99726.48
2023-05-15T03:47:33.684Z,99720.64
2023-05-15T03:50:01.183Z,99722.09
2023-05-15T03:52:28.651Z,99725.98
2023-05-15T03:54:56.285Z,99729.41
2023-05-15T03:57:23.790Z,99724.47
2023-05-15T03:59:51.299Z,99727.15
2023-05-15T04:02:18.727Z,99727.25
2023-05-15T04:04:46.274Z,99722.63
2023-05-15T04:07:13.775Z,99717.33
2023-05-15T04:09:41.301Z,99712.92
2023-05-15T04:12:09.101Z,99711.02
2023-05-15T04:14:36.665Z,99707.82
2023-05-15T04:17:04.480Z,99706.73
2023-05-15T04:19:32.040Z,99709.38
2023-05-15T04:21:59.578Z,99715.44
2023-05-15T04:24:27.098Z,99715.36
2023-05-15T04:26:54.713Z,99718.34
2023-05-15T04:29:23.572Z,99716.76
2023-05-15T04:31:51.127Z,99716.48
2023-05-15T04:34:18.814Z,99712.15
2023-05-15T04:36:46.368Z,99705.57
2023-05-15T04:39:14.053Z,99693.41
2023-05-15T04:41:41.586Z,99688.45
2023-05-15T04:44:09.213Z,99684.99
2023-05-15T04:46:37.770Z,99678.78
2023-05-15T04:49:06.757Z,99674.83
2023-05-15T04:51:34.244Z,99668.53
2023-05-15T04:54:01.700Z,99665.71
2023-05-15T04:56:29.212Z,99657.25
2023-05-15T04:58:56.636Z,99657.23
2023-05-15T05:01:25.510Z,99658.55
2023-05-15T05:03:53.168Z,99655.63
2023-05-15T05:06:21.968Z,99656.94
2023-05-15T05:08:49.460Z,99658.45
2023-05-15T05:11:17.095Z,99661.47
2023-05-15T05:13:44.630Z,99661.98
2023-05-15T05:16:12.214Z,99664.27
2023-05-15T05:18:39.834Z,99663.02
2023-05-15T05:21:07.359Z,99665.45
2023-05-15T05:23:34.923Z,99669.30
2023-05-15T05:26:04.194Z,99671.80
2023-05-15T05:28:35.927Z,99678.45
2023-05-15T05:31:03.929Z,99689.80
2023-05-15T05:33:34.606Z,99690.92
2023-05-15T05:36:02.166Z,99690.10
2023-05-15T05:38:32.272Z,99686.83
2023-05-15T05:41:01.274Z,99691.02
2023-05-15T05:43:28.898Z,99689.28
2023-05-15T05:45:58.007Z,99687.42
2023-05-15T05:48:26.805Z,99698.38
2023-05-15T05:50:58.195Z,99690.72
2023-05-15T05:53:28.275Z,99675.34
2023-05-15T05:55:56.271Z,99675.77
2023-05-15T05:58:26.127Z,99667.42
2023-05-15T06:00:57.622Z,99668.73
2023-05-15T06:03:27.800Z,99665.98
2023-05-15T06:05:57.792Z,99667.62
2023-05-15T06:08:26.024Z,99659.66
2023-05-15T06:10:53.934Z,99657.36
2023-05-15T06:13:22.169Z,99655.49
2023-05-15T06:15:51.345Z,99656.42
2023-05-15T06:18:18.928Z,99657.95
2023-05-15T06:20:46.991Z,99648.42
2023-05-15T06:23:14.543Z,99645.02
2023-05-15T06:25:42.426Z,99653.50
2023-05-15T06:28:09.925Z,99664.67
2023-05-15T06:30:37.515Z,99672.26
2023-05-15T06:33:05.292Z,99675.75
2023-05-15T06:35:32.999Z,99662.29
2023-05-15T06:38:00.876Z,99656.83
2023-05-15T06:40:28.562Z,99662.23
2023-05-15T06:42:59.071Z,99660.69
2023-05-15T06:45:27.499Z,99657.52
2023-05-15T06:47:55.613Z,99660.06
2023-05-15T06:50:23.412Z,99656.14
2023-05-15T06:52:51.394Z,99650.80
2023-05-15T06:55:20.659Z,99653.02
2023-05-15T06:57:48.125Z,99652.90
2023-05-15T07:00:16.336Z,99651.50
2023-05-15T07:02:44.163Z,99647.35
2023-05-15T07:05:11.816Z,99634.89
2023-05-15T07:07:39.618Z,99629.69
2023-05-15T07:10:08.413Z,99622.13
2023-05-15T07:12:36.028Z,99628.67
2023-05-15T07:15:13.564Z,99628.85
2023-05-15T07:17:41.185Z,99629.89
2023-05-15T07:20:09.437Z,99629.89
2023-05-15T07:22:44.623Z,99622.02
2023-05-15T07:25:17.192Z,99607.52
2023-05-15T07:27:45.066Z,99596.45
2023-05-15T07:30:13.149Z,99591.64
2023-05-15T07:32:41.418Z,99584.59
2023-05-15T07:35:11.412Z,99573.80
2023-05-15T07:37:39.356Z,99569.56
2023-05-15T07:40:07.990Z,99558.14
2023-05-15T07:42:35.663Z,99551.42
2023-05-15T07:45:03.379Z,99557.52
2023-05-15T07:47:30.966Z,99561.40
2023-05-15T07:49:58.667Z,99570.30
2023-05-15T07:52:27.035Z,99573.27
2023-05-15T07:54:57.282Z,99578.05
2023-05-15T07:57:26.649Z,99578.70
2023-05-15T07:59:54.160Z,99581.37
2023-05-15T08:02:21.692Z,99582.64
2023-05-15T08:04:49.365Z,99587.73
2023-05-15T08:07:16.966Z,99583.52
2023-05-15T08:09:44.457Z,99585.19
2023-05-15T08:12:23.412Z,99581.82
2023-05-15T08:14:53.281Z,99579.55
2023-05-15T08:17:21.905Z,99573.82
2023-05-15T08:19:49.694Z,99568.66
2023-05-15T08:22:17.930Z,99564.73
2023-05-15T08:24:45.655Z,99554.79
2023-05-15T08:27:13.595Z,99550.93
2023-05-15T08:29:41.586Z,99556.36
2023-05-15T08:32:10.248Z,99549.77
2023-05-15T08:34:38.508Z,99545.32
2023-05-15T08:37:06.882Z,99541.25
2023-05-15T08:39:34.531Z,99542.83
2023-05-15T08:42:18.076Z,99545.07
2023-05-15T08:44:46.291Z,99531.59
2023-05-15T08:47:15.629Z,99521.33
2023-05-15T08:50:05.514Z,99517.80
2023-05-15T08:52:34.061Z,99520.34
2023-05-15T08:55:02.638Z,99514.69
2023-05-15T08:57:32.047Z,99510.91
2023-05-15T09:00:01.303Z,99511.22
2023-05-15T09:02:29.486Z,99505.89
2023-05-15T09:04:57.056Z,99494.85
2023-05-15T09:07:25.464Z,99490.15
2023-05-15T09:09:54.422Z,99478.04
2023-05-15T09:12:25.281Z,99488.70
2023-05-15T09:15:12.298Z,99487.50
2023-05-15T09:17:40.781Z,99479.72
2023-05-15T09:20:25.688Z,99478.34
2023-05-15T09:22:53.610Z,99473.15
2023-05-15T09:25:38.364Z,99477.06
2023-05-15T09:28:25.285Z,99473.10
2023-05-15T09:30:58.158Z,99480.15
2023-05-15T09:33:35.141Z,99489.95
2023-05-15T09:36:04.835Z,99486.33
2023-05-15T09:38:34.385Z,99477.83
2023-05-15T09:41:04.396Z,99472.61
2023-05-15T09:43:37.826Z,99474.30
2023-05-15T09:46:06.938Z,99467.48
2023-05-15T09:48:35.931Z,99464.76
2023-05-15T09:51:07.791Z,99460.21
2023-05-15T09:53:35.614Z,99455.36
2023-05-15T09:56:03.427Z,99453.45
2023-05-15T09:58:32.153Z,99455.02
2023-05-15T10:01:01.380Z,99450.17
2023-05-15T10:03:29.155Z,99452.11
2023-05-15T10:06:02.144Z,99451.20
2023-05-15T10:08:30.067Z,99448.36
2023-05-15T10:11:01.114Z,99447.05
2023-05-15T10:13:34.324Z,99441.60
2023-05-15T10:16:05.198Z,99438.79
2023-05-15T10:18:35.912Z,99439.98
2023-05-15T10:21:04.718Z,99432.09
2023-05-15T10:23:36.404Z,99425.73
2023-05-15T10:26:14.259Z,99425.82
2023-05-15T10:28:45.711Z,99427.11
2023-05-15T10:31:14.374Z,99425.95
2023-05-15T10:33:43.605Z,99418.22
2023-05-15T10:36:11.700Z,99417.39
2023-05-15T10:38:40.364Z,99410.59
2023-05-15T10:41:17.780Z,99410.94
2023-05-15T10:43:46.410Z,99412.95
2023-05-15T10:46:15.767Z,99404.47
2023-05-15T10:48:43.763Z,99405.95
2023-05-15T10:51:19.152Z,99404.87
2023-05-15T10:53:46.985Z,99397.90
2023-05-15T10:56:19.230Z,99401.33
2023-05-15T10:58:52.553Z,99398.83
2023-05-15T11:01:40.018Z,99396.29
2023-05-15T11:04:19.558Z,99390.85
2023-05-15T11:06:49.982Z,99387.73
2023-05-15T11:09:34.496Z,99385.20
2023-05-15T11:12:07.043Z,99387.13
2023-05-15T11:14:40.979Z,99381.40
2023-05-15T11:17:16.602Z,99377.95
2023-05-15T11:19:50.831Z,99377.87
2023-05-15T11:22:34.314Z,99382.88
2023-05-15T11:25:14.155Z,99384.41
2023-05-15T11:27:46.159Z,99378.05
2023-05-15T11:30:35.975Z,99370.21
2023-05-15T11:33:20.424Z,99357.90
2023-05-15T11:35:48.409Z,99354.80
2023-05-15T11:38:20.094Z,99351.41
2023-05-15T11:40:56.586Z,99349.31
2023-05-15T11:43:25.488Z,99349.55
2023-05-15T11:45:58.152Z,99341.59
2023-05-15T11:48:31.695Z,99341.45
2023-05-15T11:51:02.217Z,99345.37
2023-05-15T11:53:31.050Z,99346.61
2023-05-15T11:55:59.220Z,99342.52
2023-05-15T11:58:26.864Z,99334.16
2023-05-15T12:00:54.910Z,99328.73
2023-05-15T12:03:32.334Z,99332.15
2023-05-15T12:06:02.393Z,99335.98
2023-05-15T12:08:34.941Z,99336.92
2023-05-15T12:11:03.731Z,99337.41
2023-05-15T12:13:32.960Z,99333.56
2023-05-15T12:16:03.464Z,99328.36
2023-05-15T12:18:32.503Z,99325.41
2023-05-15T12:21:00.902Z,99320.89
2023-05-15T12:23:28.954Z,99319.25
2023-05-15T12:26:03.342Z,99314.92
2023-05-15T12:28:34.347Z,99311.58
2023-05-15T12:31:02.703Z,99317.25
2023-05-15T12:33:30.537Z,99311.15
2023-05-15T12:36:01.244Z,99304.95
2023-05-15T12:38:30.482Z,99304.07
2023-05-15T12:40:58.447Z,99304.29
2023-05-15T12:43:30.859Z,99301.14
2023-05-15T12:45:58.562Z,99297.73
2023-05-15T12:48:32.241Z,99297.30
2023-05-15T12:51:08.003Z,99295.30
2023-05-15T12:53:36.080Z,99295.29
2023-05-15T12:56:04.814Z,99289.31
2023-05-15T12:58:33.816Z,99288.99
2023-05-15T13:01:04.704Z,99285.78
2023-05-15T13:03:33.983Z,99280.95
2023-05-15T13:06:09.765Z,99276.85
2023-05-15T13:08:41.842Z,99270.02
2023-05-15T13:11:14.524Z,99263.06
2023-05-15T13:13:45.003Z,99263.13
2023-05-15T13:16:24.462Z,99254.91
2023-05-15T13:18:52.892Z,99250.61
2023-05-15T13:21:20.571Z,99246.61
2023-05-15T13:23:48.798Z,99243.02
2023-05-15T13:26:16.534Z,99241.25
2023-05-15T13:28:49.373Z,99240.88
2023-05-15T13:31:30.942Z,99233.01
2023-05-15T13:33:58.586Z,99229.41
2023-05-15T13:36:26.171Z,99231.89
2023-05-15T13:38:53.685Z,99232.13
2023-05-15T13:41:21.276Z,99228.65
2023-05-15T13:43:49.448Z,99223.94
2023-05-15T13:46:17.084Z,99221.86
2023-05-15T13:48:44.818Z,99219.91
2023-05-15T13:51:12.309Z,99214.36
2023-05-15T13:53:39.864Z,99212.64
2023-05-15T13:56:07.632Z,99210.63
2023-05-15T13:58:35.334Z,99212.25
2023-05-15T14:01:07.105Z,99208.13
2023-05-15T14:03:34.885Z,99206.84
2023-05-15T14:06:03.927Z,99203.69
2023-05-15T14:08:31.532Z,99203.73
2023-05-15T14:10:59.191Z,99205.80
2023-05-15T14:13:26.686Z,99205.92
2023-05-15T14:15:54.919Z,99204.38
2023-05-15T14:18:22.480Z,99202.33
2023-05-15T14:20:49.998Z,99202.41
2023-05-15T14:23:17.566Z,99201.14
2023-05-15T14:25:45.046Z,99199.10
2023-05-15T14:28:13.019Z,99196.42
2023-05-15T14:30:40.561Z,99193.01
2023-05-15T14:33:08.183Z,99191.25
2023-05-15T14:35:36.003Z,99190.38
2023-05-15T14:38:04.526Z,99194.30
2023-05-15T14:40:32.041Z,99191.34
2023-05-15T14:42:59.538Z,99184.47
2023-05-15T14:45:27.191Z,99187.39
2023-05-15T14:47:54.816Z,99187.48
2023-05-15T14:50:22.284Z,99187.67
2023-05-15T14:52:49.805Z,99181.41
2023-05-15T14:55:22.658Z,99181.49
2023-05-15T14:57:50.249Z,99178.71
2023-05-15T15:00:17.977Z,99174.96
2023-05-15T15:02:46.441Z,99176.48
2023-05-15T15:05:17.499Z,99170.66
2023-05-15T15:08:05.136Z,99164.34
2023-05-15T15:10:35.085Z,99163.16
2023-05-15T15:13:04.025Z,99159.73
2023-05-15T15:15:34.287Z,99156.73
2023-05-15T15:18:02.288Z,99154.41
2023-05-15T15:20:30.040Z,99153.86
2023-05-15T15:22:57.768Z,99151.27
2023-05-15T15:25:25.528Z,99147.96
2023-05-15T15:27:53.230Z,99146.22
2023-05-15T15:30:22.274Z,99145.06
2023-05-15T15:32:49.876Z,99144.33
2023-05-15T15:35:17.684Z,99142.38
2023-05-15T15:37:45.250Z,99135.13
2023-05-15T15:40:12.883Z,99134.45
2023-05-15T15:42:40.513Z,99129.15
2023-05-15T15:45:08.552Z,99130.89
2023-05-15T15:47:36.701Z,99130.64
2023-05-15T15:50:04.586Z,99124.66
2023-05-15T15:52:32.132Z,99128.95
2023-05-15T15:54:59.657Z,99127.27
2023-05-15T15:57:29.624Z,99127.69
2023-05-15T15:59:57.288Z,99127.56
2023-05-15T16:02:24.940Z,99123.73
2023-05-15T16:04:52.690Z,99119.50
2023-05-15T16:07:20.687Z,99111.20
2023-05-15T16:09:56.891Z,99110.77
2023-05-15T16:12:35.787Z,99111.42
2023-05-15T16:15:20.118Z,99110.66
2023-05-15T16:17:54.982Z,99106.71
2023-05-15T16:20:25.018Z,99110.83
2023-05-15T16:22:53.157Z,99108.32
2023-05-15T16:25:20.944Z,99112.34
2023-05-15T16:27:48.627Z,99110.63
2023-05-15T16:30:16.542Z,99112.34
2023-05-15T16:32:44.267Z,99110.41
2023-05-15T16:35:12.383Z,99108.05
2023-05-15T16:37:40.057Z,99105.55
2023-05-15T16:40:08.440Z,99107.52
2023-05-15T16:42:38.244Z,99104.98
2023-05-15T16:45:06.915Z,99100.44
2023-05-15T16:47:36.583Z,99096.80
2023-05-15T16:50:05.518Z,99095.56
2023-05-15T16:52:33.137Z,99095.30
2023-05-15T16:55:00.782Z,99091.63
2023-05-15T16:57:28.293Z,99094.13
2023-05-15T16:59:56.367Z,99090.39
2023-05-15T17:02:24.018Z,99088.20
2023-05-15T17:04:53.265Z,99088.95
2023-05-15T17:07:21.088Z,99088.72
2023-05-15T17:09:52.303Z,99086.19
2023-05-15T17:12:19.788Z,99088.49
2023-05-15T17:14:47.261Z,99083.87
2023-05-15T17:17:14.825Z,99082.16
2023-05-15T17:19:42.355Z,99081.48
2023-05-15T17:22:09.918Z,99080.61
2023-05-15T17:24:49.990Z,99079.60
2023-05-15T17:27:19.296Z,99080.42
2023-05-15T17:29:46.836Z,99076.81
2023-05-15T17:32:15.836Z,99081.90
2023-05-15T17:34:43.544Z,99086.21
2023-05-15T17:37:11.235Z,99088.92
2023-05-15T17:39:38.890Z,99089.21
2023-05-15T17:42:06.498Z,99089.98
2023-05-15T17:44:34.017Z,99094.55
2023-05-15T17:47:03.051Z,99094.61
2023-05-15T17:49:30.603Z,99102.14
2023-05-15T17:51:58.422Z,99094.58
2023-05-15T17:54:26.092Z,99092.19
2023-05-15T17:56:53.599Z,99091.07
2023-05-15T17:59:21.256Z,99085.19
2023-05-15T18:01:48.927Z,99089.92
2023-05-15T18:04:16.628Z,99088.13
2023-05-15T18:06:44.378Z,99091.74
2023-05-15T18:09:12.000Z,99096.30
2023-05-15T18:11:39.558Z,99099.91
2023-05-15T18:14:07.193Z,99105.67
2023-05-15T18:16:34.775Z,99108.84
2023-05-15T18:19:02.400Z,99107.34
2023-05-15T18:21:29.874Z,99103.80
2023-05-15T18:23:57.339Z,99099.73
2023-05-15T18:26:25.743Z,99099.74
2023-05-15T18:28:53.288Z,99094.05
2023-05-15T18:31:20.899Z,99091.64
2023-05-15T18:33:48.541Z,99089.52
2023-05-15T18:36:16.221Z,99091.68
2023-05-15T18:38:43.781Z,99088.60
2023-05-15T18:41:11.274Z,99094.23
2023-05-15T18:43:38.834Z,99093.77
2023-05-15T18:46:06.467Z,99101.55
2023-05-15T18:48:34.062Z,99105.84
2023-05-15T18:51:02.304Z,99107.56
2023-05-15T18:53:30.163Z,99108.95
2023-05-15T18:55:57.763Z,99108.77
2023-05-15T18:58:25.599Z,99106.34
2023-05-15T19:00:53.345Z,99111.73
2023-05-15T19:03:21.071Z,99111.58
2023-05-15T19:05:48.757Z,99111.77
2023-05-15T19:08:16.390Z,99113.70
2023-05-15T19:10:48.289Z,99110.39
2023-05-15T19:13:16.629Z,99110.19
2023-05-15T19:15:52.238Z,99111.38
2023-05-15T19:18:20.166Z,99107.68
2023-05-15T19:20:52.368Z,99101.39
2023-05-15T19:23:23.903Z,99103.05
2023-05-15T19:25:51.486Z,99101.54
2023-05-15T19:28:18.984Z,99100.73
2023-05-15T19:30:46.644Z,99097.84
2023-05-15T19:33:15.947Z,99099.73
2023-05-15T19:35:44.824Z,99096.95
2023-05-15T19:38:13.433Z,99099.81
2023-05-15T19:40:44.344Z,99101.90
2023-05-15T19:43:14.116Z,99103.65
2023-05-15T19:45:42.193Z,99106.70
2023-05-15T19:48:09.758Z,99109.01
2023-05-15T19:50:40.619Z,99110.83
2023-05-15T19:53:08.367Z,99115.44
2023-05-15T19:55:36.107Z,99111.83
2023-05-15T19:58:04.088Z,99110.91
2023-05-15T20:00:32.307Z,99111.08
2023-05-15T20:03:00.960Z,99116.67
2023-05-15T20:05:29.073Z,99113.90
2023-05-15T20:07:56.598Z,99114.84
2023-05-15T20:10:24.701Z,99109.75
2023-05-15T20:12:52.727Z,99105.83
2023-05-15T20:15:20.237Z,99110.69
2023-05-15T20:17:48.985Z,99114.41
2023-05-15T20:20:16.620Z,99116.30
2023-05-15T20:22:45.057Z,99109.88
2023-05-15T20:25:12.646Z,99107.83
2023-05-15T20:27:40.323Z,99105.74
2023-05-15T20:30:08.603Z,99100.90
2023-05-15T20:32:36.300Z,99100.08
2023-05-15T20:35:04.313Z,99103.02
2023-05-15T20:37:31.906Z,99108.85
2023-05-15T20:40:00.004Z,99112.23
2023-05-15T20:42:28.489Z,99109.16
2023-05-15T20:44:56.166Z,99106.98
2023-05-15T20:47:24.670Z,99104.98
2023-05-15T20:49:52.253Z,99101.33
2023-05-15T20:52:20.782Z,99100.50
2023-05-15T20:54:51.074Z,99098.27
2023-05-15T20:57:18.618Z,99097.17
2023-05-15T20:59:46.302Z,99099.96
2023-05-15T21:02:13.837Z,99096.35
2023-05-15T21:04:41.594Z,99093.67
2023-05-15T21:07:09.248Z,99098.84
2023-05-15T21:09:36.786Z,99093.02
2023-05-15T21:12:04.562Z,99089.94
2023-05-15T21:14:32.122Z,99091.26
2023-05-15T21:16:59.604Z,99091.09
2023-05-15T21:19:27.216Z,99090.65
2023-05-15T21:21:54.721Z,99087.56
2023-05-15T21:24:22.257Z,99086.38
2023-05-15T21:26:49.808Z,99085.87
2023-05-15T21:29:17.280Z,99084.41
2023-05-15T21:31:45.290Z,99083.78
2023-05-15T21:34:12.838Z,99084.60
2023-05-15T21:36:41.367Z,99087.05
2023-05-15T21:39:09.471Z,99081.49
2023-05-15T21:41:37.108Z,99083.45
2023-05-15T21:44:04.815Z,99081.30
2023-05-15T21:46:32.517Z,99080.39
2023-05-15T21:49:01.773Z,99080.09
2023-05-15T21:51:29.363Z,99079.76
2023-05-15T21:53:58.373Z,99082.92
2023-05-15T21:56:25.921Z,99082.67
2023-05-15T21:58:53.551Z,99081.35
2023-05-15T22:01:21.096Z,99081.39
2023-05-15T22:03:48.849Z,99078.82
2023-05-15T22:06:17.766Z,99079.23
2023-05-15T22:08:45.318Z,99076.02
2023-05-15T22:11:12.976Z,99083.95
2023-05-15T22:13:40.704Z,99091.56
2023-05-15T22:16:17.933Z,99094.95
2023-05-15T22:18:47.493Z,99091.29
2023-05-15T22:21:15.929Z,99093.03
2023-05-15T22:23:43.394Z,99092.84
2023-05-15T22:26:12.137Z,99093.94
2023-05-15T22:28:39.602Z,99096.23
2023-05-15T22:31:07.449Z,99095.09
2023-05-15T22:33:35.054Z,99095.54
2023-05-15T22:36:02.942Z,99094.51
2023-05-15T22:38:30.449Z,99092.31
2023-05-15T22:40:58.488Z,99091.10
2023-05-15T22:43:26.065Z,99089.03
2023-05-15T22:45:53.691Z,99086.83
2023-05-15T22:48:22.651Z,99090.30
2023-05-15T22:50:52.219Z,99088.68
2023-05-15T22:53:19.757Z,99087.89
2023-05-15T22:55:48.020Z,99086.06
2023-05-15T22:58:16.279Z,99086.46
2023-05-15T23:00:44.244Z,99082.98
2023-05-15T23:03:11.963Z,99085.52
2023-05-15T23:05:40.501Z,99083.73
2023-05-15T23:08:08.062Z,99087.79
2023-05-15T23:10:35.629Z,99089.05
2023-05-15T23:13:04.208Z,99093.70
2023-05-15T23:15:31.834Z,99092.09
2023-05-15T23:17:59.417Z,99091.57
2023-05-15T23:20:27.261Z,99091.23
2023-05-15T23:22:55.261Z,99093.25
2023-05-15T23:25:22.778Z,99088.39
2023-05-15T23:27:50.443Z,99087.89
2023-05-15T23:30:18.085Z,99091.19
2023-05-15T23:32:45.829Z,99088.44
2023-05-15T23:35:13.414Z,99086.66
2023-05-15T23:37:41.064Z,99087.77
2023-05-15T23:40:08.870Z,99089.19
2023-05-15T23:42:36.351Z,99090.03
2023-05-15T23:45:04.216Z,99087.17
2023-05-15T23:47:31.756Z,99086.00
2023-05-15T23:49:59.349Z,99083.59
2023-05-15T23:52:27.143Z,99085.67
2023-05-15T23:54:54.614Z,99083.23
2023-05-15T23:57:22.433Z,99080.23
2023-05-15T23:59:50.012Z,99082.73
